createdAt,value
2017-12-19T00:01:53.245Z,8.15
2017-12-19T00:04:21.360Z,10.90
2017-12-19T00:06:50.121Z,14.10
2017-12-19T00:09:18.107Z,15.45
2017-12-19T00:11:46.137Z,15.70
2017-12-19T00:14:14.158Z,10.48
2017-12-19T00:16:42.159Z,11.93
2017-12-19T00:19:10.200Z,9.98
2017-12-19T00:21:38.232Z,10.90
2017-12-19T00:24:06.240Z,10.88
2017-12-19T00:26:35.128Z,16.65
2017-12-19T00:29:03.888Z,13.80
2017-12-19T00:31:32.656Z,11.73
2017-12-19T00:34:01.555Z,12.15
2017-12-19T00:36:29.552Z,12.68
2017-12-19T00:38:58.356Z,13.20
2017-12-19T00:41:26.376Z,12.65
2017-12-19T00:43:55.227Z,12.80
2017-12-19T00:46:23.220Z,17.35
2017-12-19T00:48:51.261Z,12.45
2017-12-19T00:51:19.267Z,15.10
2017-12-19T00:53:48.025Z,14.57
2017-12-19T00:56:16.132Z,10.07
2017-12-19T00:58:44.145Z,13.88
2017-12-19T01:01:12.136Z,15.40
2017-12-19T01:03:40.394Z,13.07
2017-12-19T01:06:09.147Z,11.00
2017-12-19T01:08:38.628Z,17.77
2017-12-19T01:11:06.653Z,12.45
2017-12-19T01:13:34.654Z,10.80
2017-12-19T01:16:02.636Z,15.35
2017-12-19T01:18:30.656Z,10.52
2017-12-19T01:20:58.663Z,12.00
2017-12-19T01:23:26.649Z,11.52
2017-12-19T01:25:54.664Z,14.15
2017-12-19T01:28:22.657Z,14.32
2017-12-19T01:30:50.651Z,12.15
2017-12-19T01:33:19.467Z,11.77
2017-12-19T01:35:48.396Z,11.65
2017-12-19T01:38:16.390Z,13.23
2017-12-19T01:40:44.424Z,19.70
2017-12-19T01:43:12.408Z,14.23
2017-12-19T01:45:41.182Z,15.60
2017-12-19T01:48:09.217Z,11.63
2017-12-19T01:50:37.227Z,13.25
2017-12-19T01:53:05.204Z,13.90
2017-12-19T01:55:33.228Z,10.65
2017-12-19T02:00:32.796Z,13.73
2017-12-19T02:03:00.840Z,10.38
2017-12-19T02:05:28.929Z,9.73
2017-12-19T02:07:56.977Z,12.00
2017-12-19T02:10:25.088Z,9.55
2017-12-19T02:12:53.156Z,13.35
2017-12-19T02:15:21.209Z,14.32
2017-12-19T02:17:50.013Z,12.37
2017-12-19T02:20:18.840Z,13.18
2017-12-19T02:22:47.850Z,14.00
2017-12-19T02:25:15.921Z,10.30
2017-12-19T02:27:43.977Z,14.75
2017-12-19T02:30:12.162Z,13.77
2017-12-19T02:32:40.210Z,13.82
2017-12-19T02:35:08.261Z,16.10
2017-12-19T02:37:36.326Z,12.48
2017-12-19T02:40:05.138Z,14.38
2017-12-19T02:42:45.614Z,13.57
2017-12-19T02:45:14.437Z,10.50
2017-12-19T02:47:42.563Z,14.32
2017-12-19T02:50:10.623Z,12.65
2017-12-19T02:52:38.694Z,12.90
2017-12-19T02:55:06.730Z,13.62
2017-12-19T02:57:34.953Z,14.25
2017-12-19T03:00:02.981Z,13.80
2017-12-19T03:02:31.038Z,15.40
2017-12-19T03:04:59.094Z,10.15
2017-12-19T03:07:27.901Z,12.43
2017-12-19T03:09:55.962Z,17.50
2017-12-19T03:12:24.752Z,10.43
2017-12-19T03:14:52.937Z,14.87
2017-12-19T03:17:20.997Z,12.75
2017-12-19T03:19:49.073Z,14.65
2017-12-19T03:22:17.141Z,9.65
2017-12-19T03:24:45.739Z,11.50
2017-12-19T03:27:13.834Z,14.00
2017-12-19T03:29:41.896Z,15.13
2017-12-19T03:32:09.995Z,14.05
2017-12-19T03:34:38.037Z,9.60
2017-12-19T03:37:06.851Z,13.55
2017-12-19T03:39:36.232Z,16.30
2017-12-19T03:42:04.305Z,16.25
2017-12-19T03:44:33.272Z,11.38
2017-12-19T03:47:01.352Z,12.07
2017-12-19T03:49:30.029Z,13.00
2017-12-19T03:51:58.097Z,16.12
2017-12-19T03:54:26.169Z,12.27
2017-12-19T03:56:54.224Z,13.60
2017-12-19T03:59:22.316Z,18.20
2017-12-19T04:01:50.366Z,14.93
2017-12-19T04:04:19.197Z,9.32
2017-12-19T04:06:47.240Z,11.55
2017-12-19T04:09:16.086Z,12.52
2017-12-19T04:11:44.125Z,16.08
2017-12-19T04:14:12.977Z,12.27
2017-12-19T04:16:41.145Z,13.82
2017-12-19T04:19:09.254Z,12.77
2017-12-19T04:21:37.321Z,12.65
2017-12-19T04:24:05.402Z,13.77
2017-12-19T04:26:33.447Z,12.07
2017-12-19T04:29:02.336Z,12.20
2017-12-19T04:31:30.386Z,11.77
2017-12-19T04:33:58.553Z,16.67
2017-12-19T04:36:27.526Z,15.02
2017-12-19T04:38:56.333Z,13.43
2017-12-19T04:41:26.049Z,9.40
2017-12-19T04:43:54.877Z,15.05
2017-12-19T04:46:22.965Z,14.27
2017-12-19T04:48:51.005Z,13.10
2017-12-19T04:51:19.064Z,17.33
2017-12-19T04:53:47.710Z,15.75
2017-12-19T04:56:16.543Z,11.10
2017-12-19T04:58:44.597Z,16.58
2017-12-19T05:01:13.426Z,13.90
2017-12-19T05:03:41.585Z,16.30
2017-12-19T05:06:10.428Z,13.18
2017-12-19T05:08:38.505Z,18.92
2017-12-19T05:11:06.577Z,13.15
2017-12-19T05:13:34.685Z,18.33
2017-12-19T05:16:02.724Z,15.35
2017-12-19T05:18:31.821Z,16.73
2017-12-19T05:20:59.874Z,18.90
2017-12-19T05:23:27.930Z,14.38
2017-12-19T05:25:56.036Z,13.30
2017-12-19T05:28:24.117Z,15.52
2017-12-19T05:30:52.163Z,14.80
2017-12-19T05:33:21.725Z,12.55
2017-12-19T05:35:49.785Z,12.30
2017-12-19T05:38:17.824Z,12.52
2017-12-19T05:40:46.349Z,17.95
2017-12-19T05:43:14.393Z,14.98
2017-12-19T05:45:42.464Z,12.90
2017-12-19T05:48:10.519Z,13.60
2017-12-19T05:50:38.574Z,14.40
2017-12-19T05:53:07.376Z,13.95
2017-12-19T05:55:36.212Z,11.43
2017-12-19T05:58:04.241Z,14.25
2017-12-19T06:00:32.357Z,12.80
2017-12-19T06:03:01.153Z,12.70
2017-12-19T06:05:29.366Z,15.35
2017-12-19T06:07:57.405Z,13.68
2017-12-19T06:10:25.481Z,13.50
2017-12-19T06:12:53.771Z,14.70
2017-12-19T06:15:21.842Z,11.52
2017-12-19T06:17:49.889Z,12.90
2017-12-19T06:20:17.936Z,14.80
2017-12-19T06:22:46.062Z,14.05
2017-12-19T06:25:14.113Z,13.60
2017-12-19T06:27:42.924Z,14.55
2017-12-19T06:30:10.997Z,13.23
2017-12-19T06:32:39.800Z,11.35
2017-12-19T06:35:08.638Z,13.52
2017-12-19T06:37:36.717Z,11.70
2017-12-19T06:40:04.768Z,17.62
2017-12-19T06:42:33.668Z,18.37
2017-12-19T06:45:02.485Z,20.10
2017-12-19T06:47:32.211Z,12.63
2017-12-19T06:50:00.255Z,11.98
2017-12-19T06:52:28.334Z,12.50
2017-12-19T06:54:56.357Z,14.07
2017-12-19T06:57:24.388Z,16.05
2017-12-19T06:59:52.466Z,15.25
2017-12-19T07:02:20.506Z,19.12
2017-12-19T07:04:49.336Z,17.73
2017-12-19T07:07:17.392Z,14.98
2017-12-19T07:09:46.452Z,16.17
2017-12-19T07:12:15.293Z,14.30
2017-12-19T07:14:43.338Z,14.95
2017-12-19T07:17:11.376Z,15.85
2017-12-19T07:19:39.460Z,11.98
2017-12-19T07:22:08.852Z,15.52
2017-12-19T07:24:37.700Z,19.50
2017-12-19T07:27:06.666Z,12.50
2017-12-19T07:29:34.714Z,14.75
2017-12-19T07:32:03.676Z,12.57
2017-12-19T07:34:31.740Z,14.48
2017-12-19T07:37:00.567Z,14.25
2017-12-19T07:39:28.633Z,14.35
2017-12-19T07:41:57.816Z,14.20
2017-12-19T07:44:25.865Z,16.33
2017-12-19T07:46:53.921Z,16.02
2017-12-19T07:49:21.971Z,13.82
2017-12-19T07:51:50.033Z,15.52
2017-12-19T07:54:18.057Z,14.02
2017-12-19T07:56:46.129Z,16.60
2017-12-19T07:59:14.166Z,15.75
2017-12-19T08:01:42.295Z,16.98
2017-12-19T08:04:10.325Z,14.75
2017-12-19T08:06:38.373Z,15.63
2017-12-19T08:09:07.249Z,16.42
2017-12-19T08:11:35.567Z,16.75
2017-12-19T08:14:03.815Z,15.57
2017-12-19T08:16:32.612Z,17.33
2017-12-19T08:19:00.661Z,10.80
2017-12-19T08:21:28.708Z,16.12
2017-12-19T08:23:58.264Z,20.60
2017-12-19T08:26:27.074Z,16.77
2017-12-19T08:28:55.413Z,18.40
2017-12-19T08:31:23.958Z,15.65
2017-12-19T08:33:51.992Z,17.02
2017-12-19T08:36:20.025Z,14.13
2017-12-19T08:38:48.084Z,15.07
2017-12-19T08:41:16.884Z,14.68
2017-12-19T08:43:45.705Z,15.63
2017-12-19T08:46:13.743Z,15.95
2017-12-19T08:48:41.829Z,18.70
2017-12-19T08:51:09.870Z,14.25
2017-12-19T08:53:37.943Z,18.10
2017-12-19T08:56:05.986Z,16.17
2017-12-19T08:58:34.078Z,14.48
2017-12-19T09:01:02.884Z,16.30
2017-12-19T09:03:31.230Z,15.93
2017-12-19T09:05:59.257Z,16.35
2017-12-19T09:08:28.077Z,19.02
2017-12-19T09:10:56.108Z,13.57
2017-12-19T09:13:24.164Z,14.15
2017-12-19T09:15:52.200Z,17.98
2017-12-19T09:18:20.285Z,14.90
2017-12-19T09:20:49.243Z,16.48
2017-12-19T09:23:17.586Z,17.27
2017-12-19T09:25:45.625Z,15.65
2017-12-19T09:28:13.676Z,16.35
2017-12-19T09:30:42.488Z,15.57
2017-12-19T09:33:10.527Z,16.90
2017-12-19T09:35:38.596Z,13.62
2017-12-19T09:38:06.637Z,18.08
2017-12-19T09:40:34.834Z,20.17
2017-12-19T09:43:02.873Z,15.85
2017-12-19T09:45:30.935Z,18.02
2017-12-19T09:47:58.980Z,17.92
2017-12-19T09:50:27.028Z,22.83
2017-12-19T09:52:55.085Z,16.87
2017-12-19T09:55:23.130Z,18.12
2017-12-19T09:57:51.945Z,17.75
2017-12-19T10:00:19.977Z,21.35
2017-12-19T10:02:48.068Z,14.18
2017-12-19T10:05:16.101Z,17.52
2017-12-19T10:07:44.160Z,15.63
2017-12-19T10:10:12.200Z,15.93
2017-12-19T10:12:40.280Z,20.00
2017-12-19T10:15:08.384Z,20.75
2017-12-19T10:17:36.457Z,19.50
2017-12-19T10:20:04.505Z,21.77
2017-12-19T10:22:32.590Z,19.15
2017-12-19T10:25:00.637Z,17.05
2017-12-19T10:27:29.475Z,12.70
2017-12-19T10:29:57.521Z,12.82
2017-12-19T10:32:26.453Z,19.33
2017-12-19T10:34:54.492Z,17.50
2017-12-19T10:37:22.545Z,16.75
2017-12-19T10:39:50.600Z,18.75
2017-12-19T10:42:18.643Z,19.15
2017-12-19T10:44:46.729Z,13.40
2017-12-19T10:47:14.807Z,15.38
2017-12-19T10:49:42.807Z,14.82
2017-12-19T10:52:11.649Z,16.30
2017-12-19T10:54:39.696Z,15.60
2017-12-19T10:57:08.509Z,15.68
2017-12-19T10:59:36.560Z,16.17
2017-12-19T11:02:05.368Z,15.82
2017-12-19T11:04:33.438Z,19.75
2017-12-19T11:07:01.480Z,16.15
2017-12-19T11:09:29.565Z,13.43
2017-12-19T11:11:57.601Z,15.90
2017-12-19T11:14:26.104Z,14.63
2017-12-19T11:16:54.157Z,14.23
2017-12-19T11:19:22.192Z,13.70
2017-12-19T11:21:50.294Z,16.23
2017-12-19T11:24:18.341Z,16.37
2017-12-19T11:26:47.173Z,17.62
2017-12-19T11:29:15.239Z,14.95
2017-12-19T11:31:43.326Z,17.25
2017-12-19T11:34:12.189Z,15.90
2017-12-19T11:36:40.278Z,14.23
2017-12-19T11:39:08.363Z,16.35
2017-12-19T11:41:36.406Z,13.02
2017-12-19T11:44:04.446Z,15.90
2017-12-19T11:46:32.541Z,14.40
2017-12-19T11:49:01.357Z,14.52
2017-12-19T11:51:29.460Z,13.98
2017-12-19T11:53:57.472Z,12.85
2017-12-19T11:56:25.532Z,13.15
2017-12-19T11:58:53.829Z,13.60
2017-12-19T12:01:21.865Z,16.45
2017-12-19T12:03:49.970Z,14.57
2017-12-19T12:06:18.020Z,19.17
2017-12-19T12:08:46.045Z,16.87
2017-12-19T12:11:14.285Z,13.13
2017-12-19T12:13:42.324Z,16.50
2017-12-19T12:16:10.376Z,10.80
2017-12-19T12:18:38.425Z,12.27
2017-12-19T12:21:06.469Z,13.60
2017-12-19T12:23:34.520Z,10.70
2017-12-19T12:26:02.644Z,10.60
2017-12-19T12:28:30.749Z,12.48
2017-12-19T12:30:58.748Z,9.98
2017-12-19T12:33:26.800Z,13.55
2017-12-19T12:35:54.835Z,16.25
2017-12-19T12:38:22.879Z,13.18
2017-12-19T12:40:50.917Z,12.30
2017-12-19T12:43:19.796Z,11.95
2017-12-19T12:45:48.663Z,13.55
2017-12-19T12:48:16.749Z,16.30
2017-12-19T12:50:44.812Z,17.87
2017-12-19T12:53:13.863Z,16.40
2017-12-19T12:55:41.914Z,12.63
2017-12-19T12:58:09.964Z,12.32
2017-12-19T13:00:38.912Z,13.35
2017-12-19T13:03:08.161Z,14.32
2017-12-19T13:05:36.198Z,10.68
2017-12-19T13:08:04.262Z,12.52
2017-12-19T13:10:32.291Z,12.35
2017-12-19T13:13:00.381Z,11.12
2017-12-19T13:15:28.465Z,12.82
2017-12-19T13:17:57.266Z,17.40
2017-12-19T13:20:25.365Z,12.43
2017-12-19T13:22:53.421Z,12.00
2017-12-19T13:25:21.478Z,12.55
2017-12-19T13:27:49.524Z,15.82
2017-12-19T13:30:18.404Z,19.98
2017-12-19T13:32:46.445Z,18.37
2017-12-19T13:35:14.513Z,19.62
2017-12-19T13:37:43.321Z,20.85
2017-12-19T13:40:11.396Z,20.50
2017-12-19T13:42:40.207Z,18.30
2017-12-19T13:45:09.096Z,21.77
2017-12-19T13:47:37.906Z,21.05
2017-12-19T13:50:06.999Z,19.17
2017-12-19T13:52:35.745Z,21.05
2017-12-19T13:55:03.785Z,17.15
2017-12-19T13:57:31.896Z,21.80
2017-12-19T13:59:59.945Z,20.60
2017-12-19T14:02:27.989Z,17.55
2017-12-19T14:04:56.085Z,17.60
2017-12-19T14:07:24.124Z,20.27
2017-12-19T14:09:52.945Z,26.98
2017-12-19T14:12:20.981Z,25.05
2017-12-19T14:14:49.034Z,21.80
2017-12-19T14:17:19.813Z,23.42
2017-12-19T14:19:47.909Z,21.35
2017-12-19T14:22:15.986Z,21.62
2017-12-19T14:24:44.037Z,20.65
2017-12-19T14:27:12.097Z,25.85
2017-12-19T14:29:40.177Z,21.87
2017-12-19T14:32:08.965Z,23.60
2017-12-19T14:34:36.997Z,24.90
2017-12-19T14:37:05.057Z,21.45
2017-12-19T14:39:33.093Z,25.02
2017-12-19T14:42:01.914Z,22.67
2017-12-19T14:44:30.025Z,26.95
2017-12-19T14:46:58.093Z,22.45
2017-12-19T14:49:26.128Z,28.45
2017-12-19T14:51:54.213Z,27.50
2017-12-19T14:54:22.266Z,24.05
2017-12-19T14:56:50.295Z,21.98
2017-12-19T14:59:18.369Z,23.60
2017-12-19T15:01:46.392Z,21.67
2017-12-19T15:04:14.461Z,24.98
2017-12-19T15:06:43.273Z,19.35
2017-12-19T15:09:11.329Z,30.75
2017-12-19T15:11:39.376Z,22.08
2017-12-19T15:14:07.457Z,24.05
2017-12-19T15:16:35.492Z,18.87
2017-12-19T15:19:05.224Z,22.23
2017-12-19T15:21:34.036Z,21.75
2017-12-19T15:24:02.083Z,24.42
2017-12-19T15:26:30.129Z,24.75
2017-12-19T15:28:58.169Z,20.92
2017-12-19T15:31:27.017Z,24.00
2017-12-19T15:33:55.061Z,22.80
2017-12-19T15:36:23.872Z,25.35
2017-12-19T15:38:52.681Z,20.50
2017-12-19T15:41:20.730Z,20.50
2017-12-19T15:43:48.775Z,20.75
2017-12-19T15:46:16.821Z,27.33
2017-12-19T15:48:45.661Z,20.40
2017-12-19T15:51:13.693Z,23.02
2017-12-19T15:53:41.752Z,26.87
2017-12-19T15:56:09.798Z,27.02
2017-12-19T15:58:37.845Z,27.23
2017-12-19T16:01:06.649Z,27.20
2017-12-19T16:03:35.493Z,19.75
2017-12-19T16:06:03.593Z,27.30
2017-12-19T16:08:31.616Z,26.17
2017-12-19T16:11:00.433Z,28.12
2017-12-19T16:13:29.240Z,27.25
2017-12-19T16:15:57.289Z,24.77
2017-12-19T16:18:25.333Z,28.70
2017-12-19T16:20:53.668Z,24.75
2017-12-19T16:23:21.704Z,27.37
2017-12-19T16:25:49.781Z,28.85
2017-12-19T16:28:17.824Z,27.62
2017-12-19T16:30:45.897Z,28.45
2017-12-19T16:33:13.934Z,28.98
2017-12-19T16:35:41.997Z,38.65
2017-12-19T16:38:10.801Z,31.67
2017-12-19T16:40:38.852Z,37.75
2017-12-19T16:43:06.889Z,29.70
2017-12-19T16:45:34.957Z,23.60
2017-12-19T16:48:02.996Z,26.23
2017-12-19T16:50:31.029Z,31.02
2017-12-19T16:52:59.082Z,33.17
2017-12-19T16:55:27.885Z,25.40
2017-12-19T16:57:56.722Z,24.00
2017-12-19T17:00:24.760Z,28.17
2017-12-19T17:02:52.834Z,25.30
2017-12-19T17:05:22.745Z,31.37
2017-12-19T17:07:50.837Z,31.70
2017-12-19T17:10:18.885Z,27.40
2017-12-19T17:12:46.917Z,29.92
2017-12-19T17:15:15.727Z,31.77
2017-12-19T17:17:44.562Z,33.13
2017-12-19T17:20:12.736Z,29.17
2017-12-19T17:22:41.542Z,31.77
2017-12-19T17:25:09.595Z,33.17
2017-12-19T17:27:37.681Z,24.35
2017-12-19T17:30:05.716Z,29.33
2017-12-19T17:32:33.778Z,32.92
2017-12-19T17:35:01.814Z,30.33
2017-12-19T17:37:30.748Z,33.88
2017-12-19T17:39:59.561Z,36.35
2017-12-19T17:42:28.377Z,35.33
2017-12-19T17:44:56.421Z,34.92
2017-12-19T17:47:25.109Z,33.78
2017-12-19T17:49:53.155Z,42.97
2017-12-19T17:52:21.183Z,33.92
2017-12-19T17:54:49.346Z,34.80
2017-12-19T17:57:17.345Z,35.08
2017-12-19T17:59:45.428Z,36.30
2017-12-19T18:02:15.009Z,37.67
2017-12-19T18:04:43.059Z,32.42
2017-12-19T18:07:12.721Z,39.70
2017-12-19T18:09:40.774Z,31.05
2017-12-19T18:12:08.860Z,35.17
2017-12-19T18:14:37.682Z,31.37
2017-12-19T18:17:05.728Z,39.10
2017-12-19T18:19:34.648Z,27.30
2017-12-19T18:22:02.717Z,28.25
2017-12-19T18:24:31.535Z,35.42
2017-12-19T18:27:00.653Z,31.65
2017-12-19T18:29:28.697Z,30.10
2017-12-19T18:31:56.737Z,29.95
2017-12-19T18:34:24.822Z,32.72
2017-12-19T18:36:52.849Z,28.35
2017-12-19T18:39:20.906Z,30.92
2017-12-19T18:41:48.989Z,33.05
2017-12-19T18:44:17.029Z,32.10
2017-12-19T18:46:45.864Z,26.33
2017-12-19T18:49:13.940Z,29.65
2017-12-19T18:51:41.997Z,32.25
2017-12-19T18:54:10.096Z,36.47
2017-12-19T18:56:38.157Z,29.50
2017-12-19T18:59:06.985Z,32.47
2017-12-19T19:01:35.044Z,26.02
2017-12-19T19:04:03.845Z,26.25
2017-12-19T19:06:31.917Z,26.17
2017-12-19T19:08:59.957Z,33.35
2017-12-19T19:11:28.876Z,22.55
2017-12-19T19:13:57.690Z,24.75
2017-12-19T19:16:25.737Z,28.02
2017-12-19T19:18:53.772Z,27.00
2017-12-19T19:21:22.630Z,23.55
2017-12-19T19:23:50.661Z,23.40
2017-12-19T19:26:18.708Z,23.80
2017-12-19T19:28:46.765Z,31.27
2017-12-19T19:31:14.808Z,25.90
2017-12-19T19:33:42.869Z,28.83
2017-12-19T19:36:10.930Z,23.20
2017-12-19T19:38:38.985Z,26.45
2017-12-19T19:41:07.806Z,28.00
2017-12-19T19:43:35.877Z,28.90
2017-12-19T19:46:03.919Z,21.60
2017-12-19T19:48:32.000Z,28.00
2017-12-19T19:51:00.043Z,21.62
2017-12-19T19:53:28.073Z,26.70
2017-12-19T19:55:56.129Z,27.60
2017-12-19T19:58:24.169Z,24.48
2017-12-19T20:00:52.988Z,22.10
2017-12-19T20:03:21.038Z,22.98
2017-12-19T20:05:49.092Z,24.60
2017-12-19T20:08:17.169Z,23.27
2017-12-19T20:10:45.251Z,23.20
2017-12-19T20:13:13.420Z,27.00
2017-12-19T20:15:41.469Z,25.58
2017-12-19T20:18:10.280Z,25.55
2017-12-19T20:20:39.109Z,27.00
2017-12-19T20:23:07.175Z,23.75
2017-12-19T20:25:35.270Z,25.98
2017-12-19T20:28:03.312Z,32.22
2017-12-19T20:30:31.353Z,26.10
2017-12-19T20:32:59.422Z,21.77
2017-12-19T20:35:27.466Z,27.10
2017-12-19T20:37:57.025Z,25.90
2017-12-19T20:40:25.060Z,24.67
2017-12-19T20:42:53.136Z,20.77
2017-12-19T20:45:21.176Z,25.08
2017-12-19T20:47:49.216Z,23.80
2017-12-19T20:50:17.278Z,23.10
2017-12-19T20:52:45.325Z,30.33
2017-12-19T20:55:13.603Z,22.80
2017-12-19T20:57:41.658Z,19.08
2017-12-19T21:00:09.712Z,24.30
2017-12-19T21:02:38.549Z,26.50
2017-12-19T21:05:06.585Z,28.00
2017-12-19T21:07:34.617Z,28.45
2017-12-19T21:10:03.458Z,25.05
2017-12-19T21:12:31.505Z,25.65
2017-12-19T21:15:00.340Z,24.45
2017-12-19T21:17:28.396Z,24.02
2017-12-19T21:19:57.236Z,23.75
2017-12-19T21:22:26.151Z,21.02
2017-12-19T21:24:54.229Z,21.08
2017-12-19T21:27:22.256Z,20.45
2017-12-19T21:29:50.293Z,24.85
2017-12-19T21:32:18.353Z,21.77
2017-12-19T21:34:47.189Z,21.60
2017-12-19T21:37:15.248Z,21.45
2017-12-19T21:39:43.289Z,26.10
2017-12-19T21:42:11.356Z,19.50
2017-12-19T21:44:39.398Z,17.30
2017-12-19T21:47:07.469Z,19.35
2017-12-19T21:49:35.605Z,18.60
2017-12-19T21:52:03.648Z,16.48
2017-12-19T21:54:32.625Z,18.73
2017-12-19T21:57:00.673Z,16.80
2017-12-19T21:59:29.481Z,17.17
2017-12-19T22:01:57.738Z,15.15
2017-12-19T22:04:25.866Z,18.52
2017-12-19T22:06:53.933Z,14.27
2017-12-19T22:09:21.990Z,18.05
2017-12-19T22:11:50.129Z,17.95
2017-12-19T22:14:18.165Z,18.33
2017-12-19T22:16:46.205Z,16.30
2017-12-19T22:19:14.273Z,15.93
2017-12-19T22:21:42.313Z,12.80
2017-12-19T22:24:10.404Z,16.45
2017-12-19T22:26:38.434Z,20.58
2017-12-19T22:29:06.473Z,15.05
2017-12-19T22:31:34.521Z,15.13
2017-12-19T22:34:03.330Z,15.90
2017-12-19T22:36:31.868Z,17.45
2017-12-19T22:38:59.901Z,23.35
2017-12-19T22:41:28.735Z,16.62
2017-12-19T22:43:56.763Z,14.13
2017-12-19T22:46:24.857Z,22.60
2017-12-19T22:48:52.897Z,17.73
2017-12-19T22:51:20.937Z,16.85
2017-12-19T22:53:49.029Z,19.65
2017-12-19T22:56:17.829Z,18.92
2017-12-19T22:58:45.900Z,21.37
2017-12-19T23:01:14.725Z,20.40
2017-12-19T23:03:43.867Z,20.70
2017-12-19T23:06:11.994Z,17.85
2017-12-19T23:08:40.888Z,17.45
2017-12-19T23:11:09.107Z,18.73
2017-12-19T23:13:37.909Z,18.05
2017-12-19T23:16:06.017Z,17.98
2017-12-19T23:18:34.121Z,20.65
2017-12-19T23:21:02.177Z,18.33
2017-12-19T23:23:30.265Z,19.73
2017-12-19T23:25:58.324Z,19.23
2017-12-19T23:28:27.120Z,16.45
2017-12-19T23:30:55.934Z,15.50
2017-12-19T23:33:23.969Z,15.38
2017-12-19T23:35:52.020Z,17.73
2017-12-19T23:38:20.060Z,14.57
2017-12-19T23:40:48.301Z,16.23
2017-12-19T23:43:16.337Z,14.30
2017-12-19T23:45:45.178Z,18.02
2017-12-19T23:48:13.228Z,16.98
2017-12-19T23:50:42.016Z,19.62
2017-12-19T23:53:10.212Z,19.08
2017-12-19T23:55:39.016Z,16.40
2017-12-19T23:58:07.813Z,20.37
